Algernon, Nebraska
Current Conditions -  °F | °C
As of 4:53 PM on Monday 22 Dec 2014 (Local Time) from KBBW Reporting Station
Broken Clouds Broken Clouds  
Wind Chill: 28°   Ceiling: 7500
Heat Index: 38°   Visibility: 10mi
Dew Point: 31°   Wind: 20mph
Humidity: 76%   Direction: 340°NNW
Pressure: 29.51"   Gusts: NA
Location:  41.1632°N, 99.3112°W
Report Text: KBBW 222253Z AUTO 34017KT 10SM SCT055 BKN075 03/M01 A2951 RMK AO2 SLP002 T00331006
Loading
Personal Weather Stations






























Interactive Weather Map New forecast layout! Learn more

10-Day Weather Forecast

Advertisements
Track Severe Weather on mobile